createdAt,value
2018-08-21T13:04:41.425Z,1990
2018-08-21T13:14:55.966Z,2115
2018-08-21T13:25:10.710Z,2015
2018-08-21T13:35:26.127Z,1365
2018-08-21T13:45:40.147Z,1175
2018-08-21T13:55:55.388Z,795
2018-08-21T14:06:09.843Z,810
2018-08-21T14:16:25.282Z,690
2018-08-21T14:26:40.232Z,725
2018-08-21T14:36:54.278Z,560
2018-08-21T14:47:08.859Z,510
2018-08-21T14:57:23.532Z,585
2018-08-21T15:07:38.224Z,505
2018-08-21T15:17:52.142Z,370
2018-08-21T15:28:07.236Z,290
2018-08-21T15:38:21.957Z,340
2018-08-21T15:48:37.659Z,385
2018-08-21T15:58:52.689Z,370
2018-08-21T16:09:08.414Z,340
2018-08-21T16:19:22.312Z,315
2018-08-21T16:29:36.745Z,300
2018-08-21T16:39:50.860Z,260
2018-08-21T16:50:05.628Z,215
2018-08-21T17:00:21.406Z,185
2018-08-21T17:10:35.580Z,165
2018-08-21T17:20:51.413Z,145
2018-08-21T17:31:05.660Z,115
2018-08-21T17:41:20.443Z,90
2018-08-21T17:51:35.208Z,75
2018-08-21T18:01:49.139Z,65
2018-08-21T18:12:04.637Z,55
2018-08-21T18:22:19.408Z,35
2018-08-21T18:32:33.776Z,20
2018-08-21T18:42:48.621Z,5
2018-08-21T18:53:02.833Z,0
2018-08-21T19:03:17.742Z,0
2018-08-21T19:13:33.278Z,0
2018-08-21T19:23:48.380Z,0
2018-08-21T19:44:18.632Z,0
2018-08-21T19:54:34.121Z,0
2018-08-21T20:04:49.792Z,0
2018-08-21T20:15:04.620Z,0
2018-08-21T20:25:18.480Z,0
2018-08-21T20:35:32.493Z,0
2018-08-21T20:45:48.040Z,0
2018-08-21T20:56:01.956Z,0
2018-08-21T21:06:15.951Z,0
2018-08-21T21:16:30.517Z,0
2018-08-21T21:26:45.586Z,0
2018-08-21T21:37:00.291Z,0
2018-08-21T21:47:15.156Z,0
2018-08-21T21:57:29.039Z,0
2018-08-21T22:07:43.560Z,0
2018-08-21T22:17:57.541Z,0
2018-08-21T22:28:11.789Z,0
2018-08-21T22:38:26.393Z,0
2018-08-21T22:48:40.899Z,0
2018-08-21T22:58:54.757Z,0
2018-08-21T23:09:10.442Z,0
2018-08-21T23:19:25.060Z,0
2018-08-21T23:29:39.546Z,0
2018-08-21T23:39:54.785Z,0
2018-08-21T23:50:08.933Z,0
